Time;durP1;ratioP1;P1;durP2;ratioP2;P2;SDS_P1;SDS_P2;PMS_P1;PMS_P2;Temp;Humidity;BMP_temperature;BMP_pressure;BME280_temperature;BME280_humidity;BME280_pressure;Samples;Min_cycle;Max_cycle;Signal;HPM_P1;HPM_P2
2023/01/29 00:00:42;;;;;;;33.38;22.45;;;;;;;1.89;63.11;102984.03;5047169;28;20067;-65
2023/01/29 00:03:07;;;;;;;33.00;21.90;;;;;;;1.88;62.57;102993.22;5048365;28;20064;-65
2023/01/29 00:05:33;;;;;;;32.88;22.10;;;;;;;1.90;62.87;103000.28;5050990;28;20032;-65
2023/01/29 00:07:59;;;;;;;33.20;22.70;;;;;;;1.90;63.77;102983.00;5049025;28;20063;-65
2023/01/29 00:10:24;;;;;;;31.38;22.02;;;;;;;1.89;63.18;102973.94;5050852;28;20475;-65
2023/01/29 00:12:50;;;;;;;33.47;21.80;;;;;;;1.91;63.31;102973.78;5050743;28;20547;-65
2023/01/29 00:15:16;;;;;;;33.20;22.02;;;;;;;1.92;63.66;102975.50;5045477;28;20082;-65
2023/01/29 00:17:41;;;;;;;31.50;21.92;;;;;;;1.90;63.23;102977.53;5050339;28;20033;-65
2023/01/29 00:20:07;;;;;;;32.05;21.85;;;;;;;1.89;63.14;102978.53;5050581;28;20045;-65
2023/01/29 00:22:33;;;;;;;32.03;22.13;;;;;;;1.88;63.80;102969.44;5049249;28;20033;-65
2023/01/29 00:24:58;;;;;;;32.28;21.77;;;;;;;1.91;63.60;102960.94;5050562;28;20477;-65
2023/01/29 00:27:23;;;;;;;33.25;22.08;;;;;;;1.89;63.97;102964.84;5050463;28;20021;-65
2023/01/29 00:30:08;;;;;;;31.27;21.15;;;;;;;1.89;63.64;102964.84;5048570;28;20025;-65
2023/01/29 00:32:33;;;;;;;31.60;21.92;;;;;;;1.90;63.47;102958.34;5043145;28;20037;-65
2023/01/29 00:34:58;;;;;;;32.22;21.42;;;;;;;1.92;63.89;102959.91;5030546;28;20087;-65
2023/01/29 00:37:23;;;;;;;36.17;21.95;;;;;;;1.92;63.56;102957.19;5029422;28;20017;-64
2023/01/29 00:39:49;;;;;;;32.50;22.38;;;;;;;1.89;63.66;102953.91;5033360;28;20460;-65
2023/01/29 00:44:58;;;;;;;31.80;20.85;;;;;;;1.92;63.76;102950.84;5050160;28;20036;-64
2023/01/29 00:47:32;;;;;;;31.23;21.45;;;;;;;1.91;63.14;102940.91;5049261;28;20028;-65
2023/01/29 00:49:59;;;;;;;32.30;20.63;;;;;;;1.87;63.18;102940.34;5049045;28;20035;-65
2023/01/29 00:52:24;;;;;;;33.20;21.73;;;;;;;1.86;62.94;102937.75;5048604;28;20029;-65
2023/01/29 00:54:55;;;;;;;32.03;21.60;;;;;;;1.89;63.08;102926.50;5050054;28;20180;-65
2023/01/29 00:57:22;;;;;;;33.00;22.52;;;;;;;1.87;63.21;102929.38;5050093;28;20568;-65
2023/01/29 00:59:48;;;;;;;32.63;21.55;;;;;;;1.85;62.95;102917.72;5050861;28;20079;-65
2023/01/29 01:04:57;;;;;;;32.88;20.63;;;;;;;1.84;63.07;102920.59;5051402;28;20514;-65
2023/01/29 01:07:23;;;;;;;31.13;21.20;;;;;;;1.84;63.30;102912.38;5047680;28;20147;-64
2023/01/29 01:12:32;;;;;;;31.38;21.48;;;;;;;1.89;63.33;102921.91;5051013;28;20040;-65
2023/01/29 01:14:58;;;;;;;32.17;21.42;;;;;;;1.88;63.11;102919.28;5053771;28;20025;-64
2023/01/29 01:17:23;;;;;;;32.83;21.52;;;;;;;1.87;63.18;102926.63;5054575;28;20039;-64
2023/01/29 01:19:48;;;;;;;35.25;22.77;;;;;;;1.89;63.45;102932.00;5051385;28;20404;-64
2023/01/29 01:22:14;;;;;;;33.38;22.75;;;;;;;1.86;63.54;102932.28;5051292;28;20055;-65
2023/01/29 01:24:39;;;;;;;33.35;22.25;;;;;;;1.86;63.20;102926.78;5042164;28;20031;-65
2023/01/29 01:27:05;;;;;;;33.47;22.33;;;;;;;1.84;63.10;102918.72;5032695;28;20067;-65
2023/01/29 01:29:30;;;;;;;32.55;22.23;;;;;;;1.79;63.02;102917.44;5033328;28;20483;-65
2023/01/29 01:31:56;;;;;;;33.88;23.52;;;;;;;1.83;63.48;102932.56;5044851;28;20035;-65
2023/01/29 01:34:21;;;;;;;33.55;22.73;;;;;;;1.81;63.45;102923.59;5051198;28;20017;-65
2023/01/29 01:36:47;;;;;;;35.10;22.88;;;;;;;1.82;63.13;102936.31;5053533;28;20465;-65
2023/01/29 01:39:13;;;;;;;32.97;22.05;;;;;;;1.77;63.70;102930.38;5050246;28;20041;-65
2023/01/29 01:41:38;;;;;;;34.33;23.38;;;;;;;1.77;63.69;102923.06;5042411;28;20130;-65
2023/01/29 01:44:05;;;;;;;33.75;23.85;;;;;;;1.75;63.72;102926.94;5050926;28;20818;-64
2023/01/29 01:46:36;;;;;;;34.97;23.30;;;;;;;1.74;63.95;102927.97;5051083;28;20031;-65
2023/01/29 01:49:10;;;;;;;38.72;23.85;;;;;;;1.71;63.47;102923.63;5052927;28;20037;-65
2023/01/29 01:51:41;;;;;;;36.38;23.73;;;;;;;1.69;64.07;102925.63;5051660;28;20025;-65
2023/01/29 01:54:11;;;;;;;39.67;24.95;;;;;;;1.66;63.38;102934.16;5032451;28;20116;-65
2023/01/29 01:56:47;;;;;;;36.40;24.02;;;;;;;1.65;63.66;102924.19;5045268;28;20052;-66
2023/01/29 01:59:16;;;;;;;38.33;24.50;;;;;;;1.61;63.43;102933.69;5048867;28;20029;-66
2023/01/29 02:01:48;;;;;;;38.75;25.08;;;;;;;1.62;63.47;102936.31;5052077;28;20029;-65
2023/01/29 02:09:53;;;;;;;37.88;25.10;;;;;;;1.66;63.49;102937.75;5052357;28;20075;-65
2023/01/29 02:12:20;;;;;;;39.45;25.60;;;;;;;1.63;63.62;102934.44;5050574;28;20032;-65
2023/01/29 02:14:45;;;;;;;38.35;24.45;;;;;;;1.63;63.79;102932.56;5048951;28;20037;-65
2023/01/29 02:17:14;;;;;;;38.72;25.33;;;;;;;1.59;63.79;102936.59;5038464;28;20032;-65
2023/01/29 02:20:02;;;;;;;39.33;25.35;;;;;;;1.61;63.64;102937.31;5032587;28;20052;-65
2023/01/29 02:22:54;;;;;;;41.28;26.42;;;;;;;1.67;64.31;102944.09;5043984;28;20126;-65
2023/01/29 02:25:34;;;;;;;39.88;26.25;;;;;;;1.63;64.20;102948.13;5048863;28;20151;-65
2023/01/29 02:28:12;;;;;;;41.45;25.40;;;;;;;1.59;64.14;102947.53;5048367;28;20056;-65
2023/01/29 02:31:26;;;;;;;39.80;25.80;;;;;;;1.66;64.41;102948.69;5050028;28;20052;-65
2023/01/29 02:34:15;;;;;;;39.00;25.98;;;;;;;1.67;63.74;102949.56;5004132;28;20081;-65
2023/01/29 02:36:49;;;;;;;38.05;25.27;;;;;;;1.63;64.50;102945.38;5049795;28;20171;-65
2023/01/29 02:39:40;;;;;;;39.15;26.70;;;;;;;1.66;64.44;102951.44;5050787;28;20143;-65
2023/01/29 02:42:24;;;;;;;39.95;25.80;;;;;;;1.66;64.68;102945.97;5051460;28;20117;-65
2023/01/29 02:44:53;;;;;;;40.00;26.50;;;;;;;1.63;63.91;102939.91;5049429;28;20025;-65
2023/01/29 02:47:26;;;;;;;39.00;25.35;;;;;;;1.62;64.10;102947.25;5050996;28;20025;-65
2023/01/29 02:50:01;;;;;;;40.08;27.17;;;;;;;1.62;64.42;102939.03;5040222;28;20032;-65
2023/01/29 02:52:58;;;;;;;38.60;25.23;;;;;;;1.65;64.74;102944.25;5049862;28;20779;-65
2023/01/29 02:55:46;;;;;;;39.90;26.75;;;;;;;1.63;65.08;102932.56;5049020;28;20041;-65
2023/01/29 02:58:28;;;;;;;41.78;25.38;;;;;;;1.64;64.34;102928.81;5046936;28;20044;-66
2023/01/29 03:00:57;;;;;;;37.65;25.83;;;;;;;1.65;64.59;102930.56;5051249;28;20033;-65
2023/01/29 03:03:29;;;;;;;40.70;26.23;;;;;;;1.67;64.54;102925.78;5050205;28;20060;-66
2023/01/29 03:06:21;;;;;;;43.30;26.80;;;;;;;1.75;64.54;102935.16;5050826;28;20103;-66
2023/01/29 03:08:55;;;;;;;42.03;25.98;;;;;;;1.72;64.59;102928.09;5046391;28;20126;-65
2023/01/29 03:11:20;;;;;;;39.08;26.38;;;;;;;1.75;64.99;102930.53;5043599;28;20469;-66
2023/01/29 03:13:56;;;;;;;39.80;26.10;;;;;;;1.76;65.04;102923.19;5047848;28;20043;-66
2023/01/29 03:16:49;;;;;;;43.33;26.27;;;;;;;1.80;64.89;102927.38;5050568;28;20063;-64
2023/01/29 03:19:39;;;;;;;38.75;25.80;;;;;;;1.78;64.64;102926.66;5048242;28;20614;-64
2023/01/29 03:22:07;;;;;;;38.00;25.05;;;;;;;1.75;64.99;102924.19;5038123;28;20033;-64
2023/01/29 03:33:09;;;;;;;42.03;24.25;;;;;;;1.75;65.04;102922.31;5045027;28;20130;-64
2023/01/29 03:35:40;;;;;;;37.75;24.63;;;;;;;1.74;64.88;102912.38;5036283;28;20167;-65
2023/01/29 03:38:09;;;;;;;36.38;24.73;;;;;;;1.76;65.42;102914.97;5049046;28;20041;-65
2023/01/29 03:40:47;;;;;;;39.00;25.05;;;;;;;1.78;64.95;102912.97;5047417;28;20392;-65
2023/01/29 03:43:12;;;;;;;36.28;24.60;;;;;;;1.77;64.64;102917.59;5039500;28;20492;-65
2023/01/29 03:46:02;;;;;;;36.40;23.65;;;;;;;1.87;65.37;102917.56;5030883;28;20123;-65
2023/01/29 03:48:35;;;;;;;36.35;25.05;;;;;;;1.83;65.31;102916.13;5033483;28;20084;-64
2023/01/29 03:51:10;;;;;;;;;;;;;;;1.98;64.90;102911.94;5038326;28;20029;-65
2023/01/29 03:54:00;;;;;;;35.90;24.15;;;;;;;1.91;64.52;102897.09;5049980;28;19916;-65
2023/01/29 03:56:44;;;;;;;41.75;25.15;;;;;;;1.90;64.94;102895.38;5045916;28;20026;-65
2023/01/29 03:59:37;;;;;;;38.33;25.33;;;;;;;1.89;64.67;102896.38;5041003;28;20047;-65
2023/01/29 04:02:12;;;;;;;40.28;25.75;;;;;;;1.87;64.68;102902.00;5048308;28;20049;-65
2023/01/29 04:04:42;;;;;;;38.20;24.88;;;;;;;1.86;65.26;102897.53;5050622;28;20017;-65
2023/01/29 04:07:12;;;;;;;37.85;25.17;;;;;;;1.83;64.55;102897.81;5048575;28;20025;-65
2023/01/29 04:09:53;;;;;;;38.92;25.27;;;;;;;1.86;65.42;102893.94;5050549;28;20063;-65
2023/01/29 04:12:25;;;;;;;38.83;24.80;;;;;;;1.91;65.19;102887.00;5050424;28;20041;-64
2023/01/29 04:14:53;;;;;;;38.83;25.20;;;;;;;1.88;65.19;102881.81;5047553;28;20025;-64
2023/01/29 04:17:24;;;;;;;38.08;24.85;;;;;;;1.90;64.93;102877.06;5038647;28;20087;-65
2023/01/29 04:19:49;;;;;;;39.88;25.23;;;;;;;1.90;65.16;102884.41;5030681;28;20485;-65
2023/01/29 04:22:23;;;;;;;37.60;24.35;;;;;;;1.92;65.84;102880.50;5044301;28;20040;-65
2023/01/29 04:24:49;;;;;;;42.03;26.23;;;;;;;1.89;65.16;102878.09;5050012;28;20472;-65
2023/01/29 04:27:40;;;;;;;37.92;25.23;;;;;;;1.91;65.74;102875.19;5050464;28;20029;-65
2023/01/29 04:30:08;;;;;;;39.72;25.20;;;;;;;1.90;64.98;102881.69;5037730;28;20112;-65
2023/01/29 04:32:56;;;;;;;38.50;25.83;;;;;;;1.96;65.93;102883.81;5030707;28;20038;-64
2023/01/29 04:35:30;;;;;;;40.53;25.25;;;;;;;1.92;65.85;102885.13;5043804;28;20493;-65
2023/01/29 04:38:04;;;;;;;39.05;24.98;;;;;;;1.96;65.22;102886.56;5050615;28;20110;-64
2023/01/29 04:40:53;;;;;;;40.63;25.20;;;;;;;1.99;65.61;102882.66;5048701;28;20109;-65
2023/01/29 04:43:47;;;;;;;37.05;24.98;;;;;;;2.02;65.80;102872.28;5046718;28;20153;-65
2023/01/29 04:46:17;;;;;;;39.47;25.27;;;;;;;1.97;65.35;102866.41;5043839;28;20029;-65
2023/01/29 04:49:08;;;;;;;42.88;26.05;;;;;;;1.98;65.30;102857.16;5052790;28;20441;-64
2023/01/29 04:51:50;;;;;;;40.60;25.13;;;;;;;2.02;66.02;102849.50;5042151;28;20029;-65
2023/01/29 04:54:36;;;;;;;43.10;27.02;;;;;;;2.04;66.12;102842.84;5033627;28;20075;-65
2023/01/29 04:57:22;;;;;;;44.22;27.02;;;;;;;1.97;65.97;102844.47;5043127;28;20176;-65
2023/01/29 04:59:55;;;;;;;42.05;27.33;;;;;;;1.93;66.10;102832.09;5053112;28;20511;-65
2023/01/29 05:02:23;;;;;;;43.92;27.38;;;;;;;1.94;65.31;102822.88;5050989;28;20174;-64
2023/01/29 05:04:49;;;;;;;40.90;28.20;;;;;;;1.99;66.08;102823.28;5053196;28;20087;-64
2023/01/29 05:07:16;;;;;;;43.88;28.33;;;;;;;2.02;65.69;102831.19;5048370;28;20076;-64
2023/01/29 05:09:44;;;;;;;42.70;26.63;;;;;;;2.01;66.44;102832.22;5052821;28;20484;-64
2023/01/29 05:12:11;;;;;;;42.78;27.52;;;;;;;2.06;65.89;102826.28;5040868;28;20385;-65
2023/01/29 05:14:40;;;;;;;44.72;28.77;;;;;;;2.08;65.69;102824.25;5033535;28;20021;-65
2023/01/29 05:17:12;;;;;;;44.47;27.80;;;;;;;2.07;66.12;102826.13;5037145;28;20167;-65
2023/01/29 05:19:37;;;;;;;42.95;27.63;;;;;;;2.09;65.39;102835.09;5052730;28;20695;-65
2023/01/29 05:22:04;;;;;;;45.60;28.67;;;;;;;2.07;66.38;102837.09;5052183;28;20025;-65
2023/01/29 05:24:30;;;;;;;43.58;27.80;;;;;;;2.05;66.13;102822.69;5036288;28;20565;-65
2023/01/29 05:29:44;;;;;;;43.92;28.38;;;;;;;2.08;65.95;102819.63;5052306;28;20032;-65
2023/01/29 05:32:09;;;;;;;47.10;29.30;;;;;;;2.11;66.38;102816.59;5052396;28;20049;-65
2023/01/29 05:34:35;;;;;;;44.08;28.85;;;;;;;2.16;65.91;102816.16;5053771;28;20079;-65
2023/01/29 05:37:00;;;;;;;46.22;30.48;;;;;;;2.14;65.61;102805.34;5053318;28;20025;-65
2023/01/29 05:39:25;;;;;;;43.53;28.33;;;;;;;2.12;66.37;102810.13;5049723;28;20094;-65
2023/01/29 05:41:51;;;;;;;45.53;29.13;;;;;;;2.11;66.23;102808.38;5052441;28;20441;-65
2023/01/29 05:44:16;;;;;;;42.80;28.23;;;;;;;2.10;66.11;102811.28;5045563;28;20025;-65
2023/01/29 05:46:42;;;;;;;43.58;28.05;;;;;;;2.09;66.07;102813.16;5047296;28;20059;-65
2023/01/29 05:49:08;;;;;;;43.75;29.63;;;;;;;2.14;66.56;102809.97;5048748;28;20029;-66
2023/01/29 05:51:33;;;;;;;47.47;29.58;;;;;;;2.18;65.68;102817.75;5039419;28;20033;-65
2023/01/29 05:53:58;;;;;;;45.90;29.67;;;;;;;2.14;66.03;102824.53;5045014;28;20029;-65
2023/01/29 05:56:24;;;;;;;45.45;29.60;;;;;;;2.19;65.81;102824.06;5051178;28;20099;-65
2023/01/29 05:58:49;;;;;;;46.35;30.92;;;;;;;2.17;66.67;102818.75;5048018;28;20029;-65
2023/01/29 06:01:20;;;;;;;50.97;30.45;;;;;;;2.18;66.65;102825.97;5042983;28;20090;-65
2023/01/29 06:03:45;;;;;;;47.45;30.75;;;;;;;2.15;66.46;102820.78;5043328;28;20025;-65
2023/01/29 06:06:11;;;;;;;45.83;29.75;;;;;;;2.18;65.83;102823.22;5050368;28;20036;-66
2023/01/29 06:08:37;;;;;;;48.80;30.38;;;;;;;2.18;65.67;102822.34;5051912;28;20024;-66
2023/01/29 06:11:03;;;;;;;49.38;31.10;;;;;;;2.22;65.77;102832.84;5049551;28;20078;-65
2023/01/29 06:13:29;;;;;;;49.65;31.95;;;;;;;2.21;66.47;102831.13;5048007;28;20102;-65
2023/01/29 06:15:54;;;;;;;49.97;31.73;;;;;;;2.24;66.63;102831.84;5051413;28;20463;-65
2023/01/29 06:18:19;;;;;;;49.17;31.38;;;;;;;2.22;66.01;102830.13;5052365;28;20025;-65
2023/01/29 06:20:44;;;;;;;49.50;32.00;;;;;;;2.22;66.28;102845.69;5050779;28;20032;-65
2023/01/29 06:23:10;;;;;;;48.70;32.33;;;;;;;2.25;65.97;102848.16;5051486;28;20033;-65
2023/01/29 06:25:35;;;;;;;47.85;31.17;;;;;;;2.27;66.52;102861.69;5051761;28;20028;-66
2023/01/29 06:28:00;;;;;;;46.97;31.70;;;;;;;2.27;66.12;102859.81;5050224;28;20036;-65
2023/01/29 06:30:27;;;;;;;50.58;32.38;;;;;;;2.27;66.46;102850.72;5043423;28;20810;-65
2023/01/29 06:32:57;;;;;;;46.10;31.50;;;;;;;2.26;66.80;102838.91;5052213;28;20040;-65
2023/01/29 06:35:23;;;;;;;47.92;31.80;;;;;;;2.28;66.14;102822.31;5050696;28;20103;-65
2023/01/29 06:37:48;;;;;;;50.58;32.90;;;;;;;2.27;66.69;102810.47;5050662;28;20508;-65
2023/01/29 06:40:13;;;;;;;49.40;32.40;;;;;;;2.28;66.78;102800.38;5049787;28;20047;-65
2023/01/29 06:42:39;;;;;;;47.85;31.98;;;;;;;2.28;65.84;102794.91;5051112;28;20033;-65
2023/01/29 06:45:04;;;;;;;48.53;32.42;;;;;;;2.27;66.15;102798.66;5049536;28;20033;-65
2023/01/29 06:47:30;;;;;;;47.85;31.42;;;;;;;2.27;66.54;102815.09;5048233;28;20033;-66
2023/01/29 06:49:55;;;;;;;48.17;31.70;;;;;;;2.28;65.63;102811.34;5051086;28;20056;-65
2023/01/29 06:52:20;;;;;;;48.20;31.83;;;;;;;2.25;66.29;102807.06;5033366;28;20064;-65
2023/01/29 06:54:46;;;;;;;49.28;32.58;;;;;;;2.25;66.18;102809.78;5030888;28;20026;-65
2023/01/29 06:57:11;;;;;;;49.63;32.17;;;;;;;2.26;66.68;102806.03;5048534;28;20388;-65
2023/01/29 06:59:36;;;;;;;48.53;31.90;;;;;;;2.23;65.94;102792.63;5047752;28;20032;-66
2023/01/29 07:02:02;;;;;;;46.45;32.30;;;;;;;2.22;66.14;102794.50;5050836;28;20146;-65
2023/01/29 07:04:27;;;;;;;50.22;32.97;;;;;;;2.25;66.39;102797.97;5043098;28;20040;-66
2023/01/29 07:06:53;;;;;;;52.40;32.40;;;;;;;2.23;66.46;102789.88;5042988;28;20029;-66
2023/01/29 07:09:18;;;;;;;50.78;32.33;;;;;;;2.22;66.78;102796.38;5046210;28;20025;-66
2023/01/29 07:11:44;;;;;;;48.38;30.48;;;;;;;2.21;66.69;102801.00;5045217;28;20029;-66
2023/01/29 07:14:09;;;;;;;50.25;33.05;;;;;;;2.18;67.18;102801.28;5042955;28;20033;-66
2023/01/29 07:16:34;;;;;;;49.90;31.85;;;;;;;2.22;66.75;102808.19;5045668;28;20033;-65
2023/01/29 07:19:00;;;;;;;49.38;32.25;;;;;;;2.24;66.34;102798.97;5046317;28;20036;-65
2023/01/29 07:21:25;;;;;;;49.95;32.45;;;;;;;2.25;66.57;102803.44;5044609;28;20051;-67
2023/01/29 07:23:51;;;;;;;50.53;32.50;;;;;;;2.28;66.32;102800.38;5043373;28;20043;-66
2023/01/29 07:26:16;;;;;;;50.85;31.95;;;;;;;2.31;66.46;102808.31;5046961;28;20028;-65
2023/01/29 07:28:41;;;;;;;49.70;31.77;;;;;;;2.30;66.36;102803.84;5044364;28;20358;-65
2023/01/29 07:31:10;;;;;;;52.75;32.30;;;;;;;2.26;66.87;102814.25;5046639;28;20029;-65
2023/01/29 07:33:35;;;;;;;48.90;31.67;;;;;;;2.28;67.13;102808.59;5036471;28;20051;-65
2023/01/29 07:36:01;;;;;;;50.25;31.88;;;;;;;2.30;66.25;102814.81;5031420;28;20049;-65
2023/01/29 07:38:26;;;;;;;49.78;31.35;;;;;;;2.29;66.96;102800.25;5039739;28;20068;-65
2023/01/29 07:40:52;;;;;;;47.95;32.20;;;;;;;2.28;66.77;102794.91;5046049;28;20455;-65
2023/01/29 07:43:17;;;;;;;46.60;30.70;;;;;;;2.29;66.68;102794.78;5040111;28;20029;-65
2023/01/29 07:45:42;;;;;;;51.22;33.00;;;;;;;2.30;66.45;102781.94;5036645;28;20055;-66
2023/01/29 07:48:10;;;;;;;50.78;33.03;;;;;;;2.32;66.31;102791.75;5049988;28;20029;-66
2023/01/29 07:50:36;;;;;;;50.78;34.00;;;;;;;2.34;66.85;102806.13;5049805;28;20021;-65
2023/01/29 07:53:02;;;;;;;49.00;32.17;;;;;;;2.36;66.85;102798.63;5048790;28;20051;-66
2023/01/29 07:55:28;;;;;;;50.05;31.95;;;;;;;2.36;66.54;102808.75;5046358;28;20032;-66
2023/01/29 07:57:57;;;;;;;47.63;32.97;;;;;;;2.34;66.76;102808.88;5049000;28;20154;-66
2023/01/29 08:00:29;;;;;;;47.67;32.70;;;;;;;2.35;66.92;102796.03;5049563;28;20358;-66
2023/01/29 08:03:04;;;;;;;48.67;31.55;;;;;;;2.36;66.90;102797.78;5050263;28;20025;-66
2023/01/29 08:05:29;;;;;;;51.28;31.15;;;;;;;2.37;66.83;102792.13;5050176;28;20036;-65
2023/01/29 08:07:54;;;;;;;48.40;30.75;;;;;;;2.38;66.82;102801.22;5048943;28;20107;-66
2023/01/29 08:10:20;;;;;;;48.67;31.92;;;;;;;2.39;67.07;102802.94;5046595;28;20045;-66
2023/01/29 08:12:46;;;;;;;50.78;32.25;;;;;;;2.38;66.97;102795.75;5041975;28;20094;-65
2023/01/29 08:15:11;;;;;;;47.35;31.27;;;;;;;2.40;66.44;102785.50;5029329;28;20033;-66
2023/01/29 08:17:38;;;;;;;46.42;31.38;;;;;;;2.41;66.30;102789.97;5030257;28;20075;-65
2023/01/29 08:20:06;;;;;;;48.05;31.42;;;;;;;2.40;66.25;102788.25;5033640;28;20472;-66
2023/01/29 08:22:31;;;;;;;46.40;30.63;;;;;;;2.45;66.79;102796.84;5033216;28;20045;-67
2023/01/29 08:24:56;;;;;;;49.15;31.42;;;;;;;2.43;66.43;102785.16;5048651;28;20024;-66
2023/01/29 08:27:21;;;;;;;47.03;31.15;;;;;;;2.45;66.42;102786.75;5039729;28;20057;-66
2023/01/29 08:29:47;;;;;;;48.05;31.10;;;;;;;2.41;66.53;102785.34;5037587;28;20030;-66
2023/01/29 08:32:12;;;;;;;48.13;32.13;;;;;;;2.42;66.86;102777.97;5033752;28;20045;-66
2023/01/29 08:34:38;;;;;;;53.72;32.80;;;;;;;2.40;66.62;102777.28;5040379;28;20037;-68
2023/01/29 08:37:03;;;;;;;48.65;31.50;;;;;;;2.39;66.81;102776.38;5047228;28;20021;-65
2023/01/29 08:39:28;;;;;;;46.90;31.75;;;;;;;2.45;66.92;102777.69;5044586;28;20187;-66
2023/01/29 08:41:54;;;;;;;48.72;31.60;;;;;;;2.45;66.56;102772.19;5032777;28;20021;-67
2023/01/29 08:44:19;;;;;;;46.05;30.70;;;;;;;2.44;66.84;102774.06;5033240;28;20031;-67
2023/01/29 08:46:44;;;;;;;46.38;31.10;;;;;;;2.40;66.53;102764.44;5052196;28;20036;-70
2023/01/29 08:49:09;;;;;;;50.28;32.15;;;;;;;2.38;66.50;102758.22;5052386;28;20790;-68
2023/01/29 08:51:35;;;;;;;46.47;30.75;;;;;;;2.40;66.75;102760.84;5050631;28;20033;-67
2023/01/29 08:54:00;;;;;;;47.97;31.98;;;;;;;2.39;66.25;102759.09;5051026;28;20133;-68
2023/01/29 08:56:25;;;;;;;45.78;30.08;;;;;;;2.42;67.75;102754.16;5033965;28;20021;-67
2023/01/29 08:58:51;;;;;;;46.15;29.88;;;;;;;2.43;66.13;102753.13;5047061;28;20044;-66
2023/01/29 09:01:16;;;;;;;45.03;29.38;;;;;;;2.43;66.98;102761.38;5045674;28;20028;-67
2023/01/29 09:03:43;;;;;;;43.65;28.70;;;;;;;2.44;66.32;102756.78;5045979;28;20041;-67
2023/01/29 09:06:13;;;;;;;43.58;28.35;;;;;;;2.45;66.58;102758.50;5049220;28;20035;-67
2023/01/29 09:08:39;;;;;;;43.67;28.75;;;;;;;2.46;66.07;102754.72;5047006;28;20052;-66
2023/01/29 09:11:05;;;;;;;46.65;29.33;;;;;;;2.47;66.24;102759.19;5046273;28;20033;-65
2023/01/29 09:13:30;;;;;;;44.38;28.50;;;;;;;2.49;66.18;102756.31;5035414;28;20035;-65
2023/01/29 09:16:00;;;;;;;46.47;28.85;;;;;;;2.50;66.58;102758.88;5041601;28;20687;-65
2023/01/29 09:18:25;;;;;;;45.63;28.15;;;;;;;2.49;66.23;102754.41;5045641;28;20567;-65
2023/01/29 09:20:52;;;;;;;43.85;28.10;;;;;;;2.53;65.97;102755.84;5046565;28;20060;-66
2023/01/29 09:23:17;;;;;;;41.40;29.30;;;;;;;2.56;66.46;102750.06;5049361;28;20483;-66
2023/01/29 09:25:43;;;;;;;54.60;38.75;;;;;;;2.52;65.75;102737.69;5046691;28;20033;-67
2023/01/29 09:28:08;;;;;;;41.75;27.90;;;;;;;2.51;65.86;102738.66;5046283;28;20049;-69
2023/01/29 09:30:36;;;;;;;40.97;26.90;;;;;;;2.51;66.40;102746.03;5047532;28;20041;-71
2023/01/29 09:33:02;;;;;;;42.00;27.27;;;;;;;2.51;65.94;102735.94;5040988;28;20033;-68
2023/01/29 09:35:27;;;;;;;39.58;26.25;;;;;;;2.46;65.63;102739.13;5046570;28;20029;-68
2023/01/29 09:37:53;;;;;;;41.33;27.20;;;;;;;2.52;65.87;102750.53;5047959;28;20567;-68
2023/01/29 09:40:37;;;;;;;39.95;25.63;;;;;;;2.53;66.32;102744.88;5035758;28;20032;-69
2023/01/29 09:43:12;;;;;;;40.20;26.67;;;;;;;2.55;65.76;102742.81;5035324;28;20201;-67
2023/01/29 09:45:44;;;;;;;42.20;28.13;;;;;;;2.58;65.84;102736.19;5036597;28;20041;-70
2023/01/29 09:48:12;;;;;;;42.20;29.23;;;;;;;2.59;66.26;102744.25;5050623;28;20025;-72
2023/01/29 09:50:42;;;;;;;39.17;26.88;;;;;;;2.62;65.97;102745.81;5046845;28;20033;-70
2023/01/29 09:53:22;;;;;;;40.25;27.35;;;;;;;2.69;66.29;102741.44;5031603;28;20033;-70
2023/01/29 09:55:56;;;;;;;40.17;25.73;;;;;;;2.68;65.73;102734.25;5048155;28;20119;-71
2023/01/29 09:58:24;;;;;;;41.53;25.42;;;;;;;2.69;65.53;102739.56;5048828;28;20487;-71
2023/01/29 10:00:58;;;;;;;40.55;26.40;;;;;;;2.73;65.46;102737.38;5048299;28;20087;-70
2023/01/29 10:03:49;;;;;;;38.10;25.63;;;;;;;2.76;65.46;102733.47;5050933;28;20076;-71
2023/01/29 10:06:43;;;;;;;39.35;25.02;;;;;;;2.76;65.41;102734.34;5031469;28;20033;-70
2023/01/29 10:09:26;;;;;;;41.08;26.25;;;;;;;2.77;64.89;102738.78;5044982;28;20069;-69
2023/01/29 10:12:18;;;;;;;39.50;25.48;;;;;;;2.83;65.52;102740.03;5048661;28;20033;-70
2023/01/29 10:15:05;;;;;;;36.40;25.80;;;;;;;2.81;65.14;102742.09;5040848;28;20163;-71
2023/01/29 10:17:51;;;;;;;37.10;24.10;;;;;;;2.83;65.46;102745.53;5042092;28;20048;-68
2023/01/29 10:20:51;;;;;;;37.90;25.15;;;;;;;2.85;65.77;102741.63;5044743;28;20107;-70
2023/01/29 10:23:37;;;;;;;38.47;25.00;;;;;;;2.86;65.21;102734.25;5030442;28;20051;-70
2023/01/29 10:26:02;;;;;;;37.72;24.67;;;;;;;2.83;65.43;102740.03;5046129;28;20523;-68
2023/01/29 10:28:41;;;;;;;36.08;24.75;;;;;;;2.83;65.10;102738.19;5045908;28;20040;-68
2023/01/29 10:31:11;;;;;;;35.78;24.60;;;;;;;2.84;65.11;102730.81;5037495;28;20032;-69
2023/01/29 10:33:41;;;;;;;37.13;25.17;;;;;;;2.86;64.96;102742.47;5035819;28;20029;-69
2023/01/29 10:36:22;;;;;;;38.88;25.00;;;;;;;2.86;65.07;102732.38;5047235;28;20036;-70
2023/01/29 10:38:51;;;;;;;44.10;32.47;;;;;;;2.89;64.87;102726.56;5046323;28;20045;-71
2023/01/29 10:41:37;;;;;;;39.30;29.23;;;;;;;2.91;64.90;102724.56;5032433;28;20042;-70
2023/01/29 10:44:36;;;;;;;37.50;28.10;;;;;;;2.98;65.20;102727.50;5039081;28;20029;-68
2023/01/29 10:47:19;;;;;;;35.78;24.77;;;;;;;3.00;65.24;102719.13;5043902;28;20041;-71
2023/01/29 10:49:59;;;;;;;39.22;24.48;;;;;;;3.04;64.86;102721.41;5043941;28;20037;-68
2023/01/29 10:53:01;;;;;;;36.05;24.55;;;;;;;3.05;64.71;102714.88;5029964;28;20029;-71
2023/01/29 10:55:38;;;;;;;34.45;22.77;;;;;;;3.02;64.43;102719.81;5039705;28;20086;-71
2023/01/29 10:58:14;;;;;;;34.88;22.65;;;;;;;3.02;64.88;102722.56;5045317;28;20033;-71
2023/01/29 11:00:40;;;;;;;35.22;22.95;;;;;;;3.05;64.63;102723.13;5042467;28;20036;-71
2023/01/29 11:03:29;;;;;;;32.80;22.88;;;;;;;3.11;65.23;102706.03;5024497;28;20049;-71
2023/01/29 11:06:01;;;;;;;30.75;21.35;;;;;;;3.06;64.45;102694.66;5036048;28;20028;-70
2023/01/29 11:08:35;;;;;;;32.42;22.42;;;;;;;3.11;64.08;102692.31;5048076;28;20029;-67
2023/01/29 11:11:07;;;;;;;31.00;20.80;;;;;;;3.10;64.52;102687.81;5039429;28;20043;-68
2023/01/29 11:13:59;;;;;;;30.92;21.02;;;;;;;3.15;64.54;102682.75;5037117;28;20106;-68
2023/01/29 11:16:28;;;;;;;31.30;21.80;;;;;;;3.15;64.61;102673.66;5035463;28;20028;-68
2023/01/29 11:19:00;;;;;;;30.67;20.88;;;;;;;3.15;63.93;102663.53;5031398;28;20037;-69
2023/01/29 11:21:28;;;;;;;30.47;21.13;;;;;;;3.17;64.22;102668.84;5042216;28;20037;-69
2023/01/29 11:24:14;;;;;;;30.52;19.65;;;;;;;3.19;64.45;102655.84;5024877;28;20025;-67
2023/01/29 11:26:41;;;;;;;32.80;20.38;;;;;;;3.14;64.20;102649.97;5025801;28;20067;-68
2023/01/29 11:29:26;;;;;;;31.08;21.48;;;;;;;3.16;64.27;102643.31;5044815;28;20035;-69
2023/01/29 11:31:52;;;;;;;31.65;20.98;;;;;;;3.11;64.07;102634.69;5042740;28;20128;-71
2023/01/29 11:34:20;;;;;;;33.22;21.15;;;;;;;3.14;64.03;102631.66;5037764;28;20036;-72
2023/01/29 11:37:14;;;;;;;35.70;22.02;;;;;;;3.18;64.26;102623.91;5045455;28;20543;-70
2023/01/29 11:39:45;;;;;;;30.63;21.38;;;;;;;3.20;63.92;102627.38;5037181;28;20049;-68
2023/01/29 11:42:19;;;;;;;34.75;23.25;;;;;;;3.25;64.18;102626.88;5043582;28;20036;-71
2023/01/29 11:44:45;;;;;;;32.08;22.52;;;;;;;3.25;64.18;102613.16;5044951;28;20029;-72
2023/01/29 11:47:20;;;;;;;32.58;21.55;;;;;;;3.27;63.80;102614.75;5043976;28;20460;-70
2023/01/29 11:49:51;;;;;;;33.13;22.63;;;;;;;3.24;63.52;102611.47;5043324;28;20033;-71
2023/01/29 11:52:20;;;;;;;36.83;22.63;;;;;;;3.26;63.94;102602.03;5039754;28;20033;-71
2023/01/29 11:54:53;;;;;;;29.98;21.50;;;;;;;3.26;64.26;102593.78;5027942;28;20823;-72
2023/01/29 11:57:27;;;;;;;33.13;22.65;;;;;;;3.29;63.65;102587.13;5031561;28;20093;-69
2023/01/29 11:59:54;;;;;;;34.05;23.65;;;;;;;3.28;64.06;102580.78;5044937;28;20040;-71